sensor_id;sensor_type;location;lat;lon;timestamp;temperature;humidity
78694;SHT31;68029;51.978;5.646;2023-07-09T00:01:58;25.9;59.8
78694;SHT31;68029;51.978;5.646;2023-07-09T00:04:29;25.9;60.2
78694;SHT31;68029;51.978;5.646;2023-07-09T00:07:04;25.9;60.4
78694;SHT31;68029;51.978;5.646;2023-07-09T00:09:33;25.8;60.4
78694;SHT31;68029;51.978;5.646;2023-07-09T00:12:02;25.8;60.2
78694;SHT31;68029;51.978;5.646;2023-07-09T00:14:31;25.8;60.5
78694;SHT31;68029;51.978;5.646;2023-07-09T00:17:01;25.8;60.4
78694;SHT31;68029;51.978;5.646;2023-07-09T00:19:30;25.7;60.6
78694;SHT31;68029;51.978;5.646;2023-07-09T00:21:58;25.7;61.1
78694;SHT31;68029;51.978;5.646;2023-07-09T00:24:27;25.7;61.0
78694;SHT31;68029;51.978;5.646;2023-07-09T00:26:55;25.7;60.9
78694;SHT31;68029;51.978;5.646;2023-07-09T00:29:23;25.6;61.1
78694;SHT31;68029;51.978;5.646;2023-07-09T00:31:52;25.6;61.3
78694;SHT31;68029;51.978;5.646;2023-07-09T00:34:20;25.6;61.4
78694;SHT31;68029;51.978;5.646;2023-07-09T00:36:51;25.5;61.2
78694;SHT31;68029;51.978;5.646;2023-07-09T00:39:22;25.5;61.6
78694;SHT31;68029;51.978;5.646;2023-07-09T00:41:51;25.5;61.3
78694;SHT31;68029;51.978;5.646;2023-07-09T00:44:29;25.4;61.6
78694;SHT31;68029;51.978;5.646;2023-07-09T00:47:21;25.4;61.3
78694;SHT31;68029;51.978;5.646;2023-07-09T00:50:06;25.4;61.6
78694;SHT31;68029;51.978;5.646;2023-07-09T00:52:42;25.3;61.6
78694;SHT31;68029;51.978;5.646;2023-07-09T00:55:19;25.3;61.8
78694;SHT31;68029;51.978;5.646;2023-07-09T00:57:53;25.3;61.9
78694;SHT31;68029;51.978;5.646;2023-07-09T01:00:28;25.3;61.9
78694;SHT31;68029;51.978;5.646;2023-07-09T01:03:02;25.2;61.9
78694;SHT31;68029;51.978;5.646;2023-07-09T01:05:32;25.2;62.2
78694;SHT31;68029;51.978;5.646;2023-07-09T01:08:01;25.2;62.2
78694;SHT31;68029;51.978;5.646;2023-07-09T01:10:29;25.1;62.1
78694;SHT31;68029;51.978;5.646;2023-07-09T01:12:58;25.1;62.3
78694;SHT31;68029;51.978;5.646;2023-07-09T01:15:29;25.1;62.4
78694;SHT31;68029;51.978;5.646;2023-07-09T01:18:00;25.1;62.4
78694;SHT31;68029;51.978;5.646;2023-07-09T01:20:28;25.0;62.7
78694;SHT31;68029;51.978;5.646;2023-07-09T01:22:57;25.0;62.7
78694;SHT31;68029;51.978;5.646;2023-07-09T01:25:27;25.0;62.5
78694;SHT31;68029;51.978;5.646;2023-07-09T01:27:57;25.0;62.7
78694;SHT31;68029;51.978;5.646;2023-07-09T01:30:32;24.9;62.8
78694;SHT31;68029;51.978;5.646;2023-07-09T01:33:02;24.9;62.9
78694;SHT31;68029;51.978;5.646;2023-07-09T01:35:35;24.9;62.9
78694;SHT31;68029;51.978;5.646;2023-07-09T01:38:04;24.8;63.0
78694;SHT31;68029;51.978;5.646;2023-07-09T01:40:34;24.8;63.0
78694;SHT31;68029;51.978;5.646;2023-07-09T01:43:04;24.8;63.0
78694;SHT31;68029;51.978;5.646;2023-07-09T01:45:36;24.7;63.3
78694;SHT31;68029;51.978;5.646;2023-07-09T01:48:06;24.7;63.3
78694;SHT31;68029;51.978;5.646;2023-07-09T01:50:41;24.7;63.4
78694;SHT31;68029;51.978;5.646;2023-07-09T01:53:12;24.6;63.5
78694;SHT31;68029;51.978;5.646;2023-07-09T01:55:41;24.6;63.8
78694;SHT31;68029;51.978;5.646;2023-07-09T01:58:10;24.6;64.0
78694;SHT31;68029;51.978;5.646;2023-07-09T02:00:39;24.5;64.0
78694;SHT31;68029;51.978;5.646;2023-07-09T02:03:08;24.5;64.1
78694;SHT31;68029;51.978;5.646;2023-07-09T02:05:37;24.5;64.1
78694;SHT31;68029;51.978;5.646;2023-07-09T02:08:06;24.4;64.4
78694;SHT31;68029;51.978;5.646;2023-07-09T02:10:34;24.4;64.4
78694;SHT31;68029;51.978;5.646;2023-07-09T02:13:03;24.4;64.7
78694;SHT31;68029;51.978;5.646;2023-07-09T02:15:31;24.3;64.6
78694;SHT31;68029;51.978;5.646;2023-07-09T02:18:00;24.3;64.6
78694;SHT31;68029;51.978;5.646;2023-07-09T02:20:30;24.3;64.7
78694;SHT31;68029;51.978;5.646;2023-07-09T02:22:58;24.3;64.8
78694;SHT31;68029;51.978;5.646;2023-07-09T02:25:27;24.2;64.8
78694;SHT31;68029;51.978;5.646;2023-07-09T02:27:55;24.2;64.9
78694;SHT31;68029;51.978;5.646;2023-07-09T02:30:24;24.2;64.9
78694;SHT31;68029;51.978;5.646;2023-07-09T02:32:53;24.1;65.2
78694;SHT31;68029;51.978;5.646;2023-07-09T02:35:22;24.1;65.0
78694;SHT31;68029;51.978;5.646;2023-07-09T02:37:51;24.1;65.3
78694;SHT31;68029;51.978;5.646;2023-07-09T02:40:19;24.1;65.3
78694;SHT31;68029;51.978;5.646;2023-07-09T02:42:48;24.0;65.4
78694;SHT31;68029;51.978;5.646;2023-07-09T02:45:16;24.0;65.4
78694;SHT31;68029;51.978;5.646;2023-07-09T02:47:45;24.0;65.6
78694;SHT31;68029;51.978;5.646;2023-07-09T02:50:13;24.0;65.7
78694;SHT31;68029;51.978;5.646;2023-07-09T02:52:43;23.9;65.8
78694;SHT31;68029;51.978;5.646;2023-07-09T02:55:11;23.9;65.7
78694;SHT31;68029;51.978;5.646;2023-07-09T02:57:42;23.9;65.8
78694;SHT31;68029;51.978;5.646;2023-07-09T03:00:11;23.9;65.9
78694;SHT31;68029;51.978;5.646;2023-07-09T03:02:40;23.8;65.9
78694;SHT31;68029;51.978;5.646;2023-07-09T03:05:09;23.8;65.9
78694;SHT31;68029;51.978;5.646;2023-07-09T03:07:38;23.8;65.8
78694;SHT31;68029;51.978;5.646;2023-07-09T03:10:07;23.8;65.8
78694;SHT31;68029;51.978;5.646;2023-07-09T03:12:36;23.8;65.9
78694;SHT31;68029;51.978;5.646;2023-07-09T03:15:05;23.8;66.0
78694;SHT31;68029;51.978;5.646;2023-07-09T03:17:34;23.8;66.0
78694;SHT31;68029;51.978;5.646;2023-07-09T03:20:02;23.8;66.0
78694;SHT31;68029;51.978;5.646;2023-07-09T03:22:34;23.8;66.2
78694;SHT31;68029;51.978;5.646;2023-07-09T03:25:03;23.8;66.2
78694;SHT31;68029;51.978;5.646;2023-07-09T03:27:33;23.8;66.2
78694;SHT31;68029;51.978;5.646;2023-07-09T03:30:01;23.8;66.3
78694;SHT31;68029;51.978;5.646;2023-07-09T03:32:30;23.7;66.2
78694;SHT31;68029;51.978;5.646;2023-07-09T03:34:58;23.7;66.3
78694;SHT31;68029;51.978;5.646;2023-07-09T03:37:26;23.7;66.2
78694;SHT31;68029;51.978;5.646;2023-07-09T03:39:55;23.7;66.3
78694;SHT31;68029;51.978;5.646;2023-07-09T03:42:23;23.7;66.3
78694;SHT31;68029;51.978;5.646;2023-07-09T03:44:52;23.7;66.4
78694;SHT31;68029;51.978;5.646;2023-07-09T03:47:20;23.7;66.5
78694;SHT31;68029;51.978;5.646;2023-07-09T03:49:49;23.7;66.4
78694;SHT31;68029;51.978;5.646;2023-07-09T03:52:17;23.7;66.5
78694;SHT31;68029;51.978;5.646;2023-07-09T03:54:45;23.7;66.5
78694;SHT31;68029;51.978;5.646;2023-07-09T03:57:14;23.7;66.7
78694;SHT31;68029;51.978;5.646;2023-07-09T03:59:42;23.7;66.7
78694;SHT31;68029;51.978;5.646;2023-07-09T04:02:11;23.6;66.8
78694;SHT31;68029;51.978;5.646;2023-07-09T04:04:39;23.6;67.0
78694;SHT31;68029;51.978;5.646;2023-07-09T04:07:07;23.6;67.1
78694;SHT31;68029;51.978;5.646;2023-07-09T04:09:36;23.6;67.3
78694;SHT31;68029;51.978;5.646;2023-07-09T04:12:06;23.6;67.2
78694;SHT31;68029;51.978;5.646;2023-07-09T04:14:35;23.6;67.5
78694;SHT31;68029;51.978;5.646;2023-07-09T04:17:04;23.6;67.5
78694;SHT31;68029;51.978;5.646;2023-07-09T04:19:33;23.6;67.6
78694;SHT31;68029;51.978;5.646;2023-07-09T04:22:01;23.7;67.7
78694;SHT31;68029;51.978;5.646;2023-07-09T04:24:31;23.7;67.7
78694;SHT31;68029;51.978;5.646;2023-07-09T04:27:00;23.7;67.7
78694;SHT31;68029;51.978;5.646;2023-07-09T04:29:29;23.7;67.8
78694;SHT31;68029;51.978;5.646;2023-07-09T04:32:02;23.7;67.9
78694;SHT31;68029;51.978;5.646;2023-07-09T04:34:30;23.7;67.8
78694;SHT31;68029;51.978;5.646;2023-07-09T04:36:59;23.8;68.1
78694;SHT31;68029;51.978;5.646;2023-07-09T04:39:27;23.8;68.4
78694;SHT31;68029;51.978;5.646;2023-07-09T04:41:56;23.8;68.4
78694;SHT31;68029;51.978;5.646;2023-07-09T04:44:27;23.9;68.1
78694;SHT31;68029;51.978;5.646;2023-07-09T04:46:56;23.9;68.0
78694;SHT31;68029;51.978;5.646;2023-07-09T04:49:24;23.9;68.1
78694;SHT31;68029;51.978;5.646;2023-07-09T04:51:53;24.0;67.7
78694;SHT31;68029;51.978;5.646;2023-07-09T04:54:23;24.0;67.6
78694;SHT31;68029;51.978;5.646;2023-07-09T04:56:51;24.0;68.5
78694;SHT31;68029;51.978;5.646;2023-07-09T04:59:20;24.1;68.9
78694;SHT31;68029;51.978;5.646;2023-07-09T05:01:48;24.1;68.4
78694;SHT31;68029;51.978;5.646;2023-07-09T05:04:19;24.2;68.6
78694;SHT31;68029;51.978;5.646;2023-07-09T05:06:48;24.2;68.6
78694;SHT31;68029;51.978;5.646;2023-07-09T05:09:16;24.3;68.3
78694;SHT31;68029;51.978;5.646;2023-07-09T05:11:44;24.3;68.7
78694;SHT31;68029;51.978;5.646;2023-07-09T05:14:13;24.4;68.7
78694;SHT31;68029;51.978;5.646;2023-07-09T05:16:41;24.5;67.7
78694;SHT31;68029;51.978;5.646;2023-07-09T05:19:10;24.6;67.9
78694;SHT31;68029;51.978;5.646;2023-07-09T05:21:38;24.6;68.0
78694;SHT31;68029;51.978;5.646;2023-07-09T05:24:07;24.7;67.9
78694;SHT31;68029;51.978;5.646;2023-07-09T05:26:36;24.8;67.9
78694;SHT31;68029;51.978;5.646;2023-07-09T05:29:05;24.9;66.9
78694;SHT31;68029;51.978;5.646;2023-07-09T05:31:34;25.0;65.8
78694;SHT31;68029;51.978;5.646;2023-07-09T05:34:03;25.1;65.2
78694;SHT31;68029;51.978;5.646;2023-07-09T05:36:32;25.2;63.6
78694;SHT31;68029;51.978;5.646;2023-07-09T05:39:01;25.3;63.8
78694;SHT31;68029;51.978;5.646;2023-07-09T05:41:29;25.5;63.9
78694;SHT31;68029;51.978;5.646;2023-07-09T05:43:57;25.6;61.8
78694;SHT31;68029;51.978;5.646;2023-07-09T05:46:27;25.7;61.1
78694;SHT31;68029;51.978;5.646;2023-07-09T05:48:56;25.8;60.6
78694;SHT31;68029;51.978;5.646;2023-07-09T05:51:24;25.9;60.6
78694;SHT31;68029;51.978;5.646;2023-07-09T05:53:53;26.0;60.3
78694;SHT31;68029;51.978;5.646;2023-07-09T05:56:21;26.0;60.8
78694;SHT31;68029;51.978;5.646;2023-07-09T05:58:50;26.1;60.4
78694;SHT31;68029;51.978;5.646;2023-07-09T06:01:18;26.3;59.9
78694;SHT31;68029;51.978;5.646;2023-07-09T06:03:48;26.4;59.6
78694;SHT31;68029;51.978;5.646;2023-07-09T06:06:19;26.5;58.5
78694;SHT31;68029;51.978;5.646;2023-07-09T06:08:50;26.6;58.5
78694;SHT31;68029;51.978;5.646;2023-07-09T06:11:18;26.7;58.6
78694;SHT31;68029;51.978;5.646;2023-07-09T06:13:47;26.8;58.2
78694;SHT31;68029;51.978;5.646;2023-07-09T06:16:17;27.0;57.2
78694;SHT31;68029;51.978;5.646;2023-07-09T06:18:46;27.1;57.2
78694;SHT31;68029;51.978;5.646;2023-07-09T06:21:14;27.2;57.0
78694;SHT31;68029;51.978;5.646;2023-07-09T06:23:42;27.3;58.6
78694;SHT31;68029;51.978;5.646;2023-07-09T06:26:11;27.4;56.4
78694;SHT31;68029;51.978;5.646;2023-07-09T06:28:40;27.5;56.2
78694;SHT31;68029;51.978;5.646;2023-07-09T06:31:08;27.6;56.3
78694;SHT31;68029;51.978;5.646;2023-07-09T06:33:37;27.7;55.6
78694;SHT31;68029;51.978;5.646;2023-07-09T06:36:06;27.8;56.0
78694;SHT31;68029;51.978;5.646;2023-07-09T06:38:34;27.9;56.9
78694;SHT31;68029;51.978;5.646;2023-07-09T06:41:03;28.0;56.0
78694;SHT31;68029;51.978;5.646;2023-07-09T06:43:32;28.0;56.3
78694;SHT31;68029;51.978;5.646;2023-07-09T06:46:01;28.1;56.6
78694;SHT31;68029;51.978;5.646;2023-07-09T06:48:29;28.2;57.6
78694;SHT31;68029;51.978;5.646;2023-07-09T06:51:01;28.4;55.6
78694;SHT31;68029;51.978;5.646;2023-07-09T06:53:32;28.5;55.8
78694;SHT31;68029;51.978;5.646;2023-07-09T06:56:03;28.7;55.2
78694;SHT31;68029;51.978;5.646;2023-07-09T06:58:32;28.8;56.2
78694;SHT31;68029;51.978;5.646;2023-07-09T07:01:03;28.9;55.8
78694;SHT31;68029;51.978;5.646;2023-07-09T07:03:33;29.1;55.2
78694;SHT31;68029;51.978;5.646;2023-07-09T07:06:02;29.2;55.2
78694;SHT31;68029;51.978;5.646;2023-07-09T07:08:33;29.4;55.4
78694;SHT31;68029;51.978;5.646;2023-07-09T07:11:05;29.5;52.9
78694;SHT31;68029;51.978;5.646;2023-07-09T07:13:36;29.7;52.7
78694;SHT31;68029;51.978;5.646;2023-07-09T07:16:07;29.9;52.8
78694;SHT31;68029;51.978;5.646;2023-07-09T07:18:37;30.0;52.3
78694;SHT31;68029;51.978;5.646;2023-07-09T07:21:06;30.2;52.7
78694;SHT31;68029;51.978;5.646;2023-07-09T07:23:34;30.4;51.4
78694;SHT31;68029;51.978;5.646;2023-07-09T07:26:03;30.5;52.2
78694;SHT31;68029;51.978;5.646;2023-07-09T07:28:34;30.7;51.6
78694;SHT31;68029;51.978;5.646;2023-07-09T07:31:05;30.9;50.6
78694;SHT31;68029;51.978;5.646;2023-07-09T07:33:35;31.1;49.6
78694;SHT31;68029;51.978;5.646;2023-07-09T07:36:06;31.2;49.8
78694;SHT31;68029;51.978;5.646;2023-07-09T07:38:35;31.4;49.1
78694;SHT31;68029;51.978;5.646;2023-07-09T07:41:04;31.6;50.3
78694;SHT31;68029;51.978;5.646;2023-07-09T07:43:32;31.7;50.2
78694;SHT31;68029;51.978;5.646;2023-07-09T07:46:01;31.9;47.7
78694;SHT31;68029;51.978;5.646;2023-07-09T07:48:29;32.0;47.6
78694;SHT31;68029;51.978;5.646;2023-07-09T07:51:01;32.2;47.7
78694;SHT31;68029;51.978;5.646;2023-07-09T07:53:31;32.3;47.2
78694;SHT31;68029;51.978;5.646;2023-07-09T07:55:59;32.4;47.1
78694;SHT31;68029;51.978;5.646;2023-07-09T07:58:29;32.5;46.5
78694;SHT31;68029;51.978;5.646;2023-07-09T08:00:58;32.6;46.4
78694;SHT31;68029;51.978;5.646;2023-07-09T08:03:27;32.7;47.2
78694;SHT31;68029;51.978;5.646;2023-07-09T08:05:57;32.8;46.3
78694;SHT31;68029;51.978;5.646;2023-07-09T08:08:26;32.8;46.3
78694;SHT31;68029;51.978;5.646;2023-07-09T08:11:02;33.0;45.6
78694;SHT31;68029;51.978;5.646;2023-07-09T08:13:35;33.1;45.1
78694;SHT31;68029;51.978;5.646;2023-07-09T08:16:04;33.2;45.0
78694;SHT31;68029;51.978;5.646;2023-07-09T08:18:35;33.3;45.2
78694;SHT31;68029;51.978;5.646;2023-07-09T08:21:04;33.4;45.6
78694;SHT31;68029;51.978;5.646;2023-07-09T08:23:33;33.5;45.1
78694;SHT31;68029;51.978;5.646;2023-07-09T08:26:03;33.6;45.2
78694;SHT31;68029;51.978;5.646;2023-07-09T08:28:33;33.7;44.9
78694;SHT31;68029;51.978;5.646;2023-07-09T08:31:02;33.8;44.3
78694;SHT31;68029;51.978;5.646;2023-07-09T08:33:31;33.8;44.6
78694;SHT31;68029;51.978;5.646;2023-07-09T08:36:00;33.9;44.3
78694;SHT31;68029;51.978;5.646;2023-07-09T08:38:29;34.0;44.1
78694;SHT31;68029;51.978;5.646;2023-07-09T08:41:02;34.1;43.8
78694;SHT31;68029;51.978;5.646;2023-07-09T08:43:45;34.3;43.3
78694;SHT31;68029;51.978;5.646;2023-07-09T08:46:24;34.4;44.5
78694;SHT31;68029;51.978;5.646;2023-07-09T08:48:57;34.6;42.8
78694;SHT31;68029;51.978;5.646;2023-07-09T08:51:32;34.7;44.2
78694;SHT31;68029;51.978;5.646;2023-07-09T08:54:02;34.9;42.8
78694;SHT31;68029;51.978;5.646;2023-07-09T08:56:32;35.0;41.8
78694;SHT31;68029;51.978;5.646;2023-07-09T08:59:03;35.1;41.6
78694;SHT31;68029;51.978;5.646;2023-07-09T09:01:37;35.2;42.2
78694;SHT31;68029;51.978;5.646;2023-07-09T09:04:18;35.3;41.6
78694;SHT31;68029;51.978;5.646;2023-07-09T09:06:52;35.4;41.5
78694;SHT31;68029;51.978;5.646;2023-07-09T09:09:30;35.5;42.8
78694;SHT31;68029;51.978;5.646;2023-07-09T09:12:11;35.7;41.8
78694;SHT31;68029;51.978;5.646;2023-07-09T09:14:45;35.8;41.6
78694;SHT31;68029;51.978;5.646;2023-07-09T09:17:19;35.9;41.1
78694;SHT31;68029;51.978;5.646;2023-07-09T09:19:53;36.1;40.4
78694;SHT31;68029;51.978;5.646;2023-07-09T09:22:25;36.2;41.0
78694;SHT31;68029;51.978;5.646;2023-07-09T09:25:05;36.3;42.5
78694;SHT31;68029;51.978;5.646;2023-07-09T09:27:37;36.5;40.0
78694;SHT31;68029;51.978;5.646;2023-07-09T09:30:11;36.7;39.9
78694;SHT31;68029;51.978;5.646;2023-07-09T09:32:44;36.8;40.0
78694;SHT31;68029;51.978;5.646;2023-07-09T09:35:16;36.9;41.5
78694;SHT31;68029;51.978;5.646;2023-07-09T09:37:53;37.0;40.1
78694;SHT31;68029;51.978;5.646;2023-07-09T09:40:24;37.2;38.4
78694;SHT31;68029;51.978;5.646;2023-07-09T09:42:56;37.4;39.6
78694;SHT31;68029;51.978;5.646;2023-07-09T09:45:28;37.5;36.4
78694;SHT31;68029;51.978;5.646;2023-07-09T09:48:05;37.6;36.7
78694;SHT31;68029;51.978;5.646;2023-07-09T09:50:34;37.7;36.5
78694;SHT31;68029;51.978;5.646;2023-07-09T09:53:07;37.7;36.7
78694;SHT31;68029;51.978;5.646;2023-07-09T09:55:40;37.8;38.4
78694;SHT31;68029;51.978;5.646;2023-07-09T09:58:14;37.9;36.4
78694;SHT31;68029;51.978;5.646;2023-07-09T10:00:50;38.0;35.6
78694;SHT31;68029;51.978;5.646;2023-07-09T10:03:20;38.1;37.5
78694;SHT31;68029;51.978;5.646;2023-07-09T10:05:53;38.2;35.8
78694;SHT31;68029;51.978;5.646;2023-07-09T10:08:31;38.3;35.3
78694;SHT31;68029;51.978;5.646;2023-07-09T10:11:12;38.4;35.7
78694;SHT31;68029;51.978;5.646;2023-07-09T10:13:44;38.5;34.6
78694;SHT31;68029;51.978;5.646;2023-07-09T10:16:19;38.6;34.0
78694;SHT31;68029;51.978;5.646;2023-07-09T10:18:55;38.7;33.7
78694;SHT31;68029;51.978;5.646;2023-07-09T10:21:31;38.8;32.6
78694;SHT31;68029;51.978;5.646;2023-07-09T10:24:15;38.9;32.2
78694;SHT31;68029;51.978;5.646;2023-07-09T10:26:53;38.9;32.9
78694;SHT31;68029;51.978;5.646;2023-07-09T10:30:15;39.0;32.9
78694;SHT31;68029;51.978;5.646;2023-07-09T10:33:01;39.1;33.6
78694;SHT31;68029;51.978;5.646;2023-07-09T10:35:38;39.1;33.2
78694;SHT31;68029;51.978;5.646;2023-07-09T10:38:25;39.2;33.8
78694;SHT31;68029;51.978;5.646;2023-07-09T10:41:00;39.3;33.5
78694;SHT31;68029;51.978;5.646;2023-07-09T10:43:36;39.4;34.3
78694;SHT31;68029;51.978;5.646;2023-07-09T10:46:13;39.6;32.6
78694;SHT31;68029;51.978;5.646;2023-07-09T10:48:46;39.7;33.2
78694;SHT31;68029;51.978;5.646;2023-07-09T10:51:22;39.9;31.6
78694;SHT31;68029;51.978;5.646;2023-07-09T10:53:56;40.0;32.3
78694;SHT31;68029;51.978;5.646;2023-07-09T10:56:29;40.0;30.4
78694;SHT31;68029;51.978;5.646;2023-07-09T10:59:05;40.1;30.0
78694;SHT31;68029;51.978;5.646;2023-07-09T11:01:40;40.1;30.0
78694;SHT31;68029;51.978;5.646;2023-07-09T11:04:20;40.0;29.6
78694;SHT31;68029;51.978;5.646;2023-07-09T11:06:55;39.9;30.2
78694;SHT31;68029;51.978;5.646;2023-07-09T11:09:30;39.8;29.3
78694;SHT31;68029;51.978;5.646;2023-07-09T11:12:05;39.7;29.3
78694;SHT31;68029;51.978;5.646;2023-07-09T11:14:39;39.6;29.9
78694;SHT31;68029;51.978;5.646;2023-07-09T11:17:14;39.5;31.0
78694;SHT31;68029;51.978;5.646;2023-07-09T11:19:46;39.5;30.1
78694;SHT31;68029;51.978;5.646;2023-07-09T11:22:22;39.5;30.0
78694;SHT31;68029;51.978;5.646;2023-07-09T11:25:03;39.4;29.7
78694;SHT31;68029;51.978;5.646;2023-07-09T11:27:27;39.4;29.7
78694;SHT31;68029;51.978;5.646;2023-07-09T11:30:01;39.4;30.9
78694;SHT31;68029;51.978;5.646;2023-07-09T11:32:31;39.4;31.3
78694;SHT31;68029;51.978;5.646;2023-07-09T11:35:20;39.4;30.3
78694;SHT31;68029;51.978;5.646;2023-07-09T11:37:49;39.4;30.6
78694;SHT31;68029;51.978;5.646;2023-07-09T11:40:23;39.4;31.4
78694;SHT31;68029;51.978;5.646;2023-07-09T11:42:54;39.4;31.6
78694;SHT31;68029;51.978;5.646;2023-07-09T11:45:27;39.5;31.1
78694;SHT31;68029;51.978;5.646;2023-07-09T11:48:00;39.5;31.6
78694;SHT31;68029;51.978;5.646;2023-07-09T11:50:34;39.5;30.8
78694;SHT31;68029;51.978;5.646;2023-07-09T11:53:18;39.5;33.3
78694;SHT31;68029;51.978;5.646;2023-07-09T11:55:49;39.5;31.9
78694;SHT31;68029;51.978;5.646;2023-07-09T11:58:18;39.5;31.0
78694;SHT31;68029;51.978;5.646;2023-07-09T12:00:55;39.5;31.1
78694;SHT31;68029;51.978;5.646;2023-07-09T12:03:27;39.4;30.3
78694;SHT31;68029;51.978;5.646;2023-07-09T12:06:01;39.3;30.4
78694;SHT31;68029;51.978;5.646;2023-07-09T12:08:34;39.2;30.1
78694;SHT31;68029;51.978;5.646;2023-07-09T12:11:05;39.1;31.2
78694;SHT31;68029;51.978;5.646;2023-07-09T12:13:39;39.0;31.2
78694;SHT31;68029;51.978;5.646;2023-07-09T12:16:20;38.8;31.5
78694;SHT31;68029;51.978;5.646;2023-07-09T12:18:49;38.6;32.7
78694;SHT31;68029;51.978;5.646;2023-07-09T12:21:18;38.5;32.0
78694;SHT31;68029;51.978;5.646;2023-07-09T12:23:51;38.3;33.0
78694;SHT31;68029;51.978;5.646;2023-07-09T12:26:22;38.2;33.9
78694;SHT31;68029;51.978;5.646;2023-07-09T12:28:52;38.0;34.5
78694;SHT31;68029;51.978;5.646;2023-07-09T12:31:26;37.8;36.0
78694;SHT31;68029;51.978;5.646;2023-07-09T12:33:56;37.6;36.9
78694;SHT31;68029;51.978;5.646;2023-07-09T12:36:26;37.5;36.8
78694;SHT31;68029;51.978;5.646;2023-07-09T12:38:59;37.4;39.0
78694;SHT31;68029;51.978;5.646;2023-07-09T12:41:33;37.3;38.2
78694;SHT31;68029;51.978;5.646;2023-07-09T12:44:04;37.2;37.7
78694;SHT31;68029;51.978;5.646;2023-07-09T12:46:34;37.1;36.8
78694;SHT31;68029;51.978;5.646;2023-07-09T12:49:05;37.0;36.8
78694;SHT31;68029;51.978;5.646;2023-07-09T12:51:37;37.0;38.0
78694;SHT31;68029;51.978;5.646;2023-07-09T12:54:14;36.9;38.5
78694;SHT31;68029;51.978;5.646;2023-07-09T12:56:43;36.8;38.5
78694;SHT31;68029;51.978;5.646;2023-07-09T12:59:19;36.8;37.9
78694;SHT31;68029;51.978;5.646;2023-07-09T13:01:50;36.7;38.0
78694;SHT31;68029;51.978;5.646;2023-07-09T13:04:19;36.7;38.7
78694;SHT31;68029;51.978;5.646;2023-07-09T13:06:48;36.6;37.9
78694;SHT31;68029;51.978;5.646;2023-07-09T13:09:21;36.6;38.8
78694;SHT31;68029;51.978;5.646;2023-07-09T13:11:51;36.6;39.7
78694;SHT31;68029;51.978;5.646;2023-07-09T13:14:22;36.5;40.4
78694;SHT31;68029;51.978;5.646;2023-07-09T13:16:52;36.5;39.8
78694;SHT31;68029;51.978;5.646;2023-07-09T13:19:28;36.4;39.8
78694;SHT31;68029;51.978;5.646;2023-07-09T13:21:56;36.3;39.7
78694;SHT31;68029;51.978;5.646;2023-07-09T13:24:28;36.1;41.0
78694;SHT31;68029;51.978;5.646;2023-07-09T13:26:59;36.0;42.4
78694;SHT31;68029;51.978;5.646;2023-07-09T13:29:33;35.8;43.7
78694;SHT31;68029;51.978;5.646;2023-07-09T13:32:02;35.6;43.8
78694;SHT31;68029;51.978;5.646;2023-07-09T13:34:33;35.5;44.4
78694;SHT31;68029;51.978;5.646;2023-07-09T13:37:02;35.3;44.0
78694;SHT31;68029;51.978;5.646;2023-07-09T13:39:31;35.2;43.3
78694;SHT31;68029;51.978;5.646;2023-07-09T13:42:00;35.0;43.7
78694;SHT31;68029;51.978;5.646;2023-07-09T13:44:30;34.8;43.3
78694;SHT31;68029;51.978;5.646;2023-07-09T13:47:00;34.7;43.8
78694;SHT31;68029;51.978;5.646;2023-07-09T13:49:29;34.5;43.5
78694;SHT31;68029;51.978;5.646;2023-07-09T13:51:59;34.4;43.0
78694;SHT31;68029;51.978;5.646;2023-07-09T13:54:31;34.2;41.6
78694;SHT31;68029;51.978;5.646;2023-07-09T13:57:02;34.0;41.7
78694;SHT31;68029;51.978;5.646;2023-07-09T13:59:32;33.8;41.9
78694;SHT31;68029;51.978;5.646;2023-07-09T14:02:01;33.6;42.1
78694;SHT31;68029;51.978;5.646;2023-07-09T14:04:29;33.4;42.6
78694;SHT31;68029;51.978;5.646;2023-07-09T14:06:58;33.2;42.9
78694;SHT31;68029;51.978;5.646;2023-07-09T14:09:27;33.0;43.4
78694;SHT31;68029;51.978;5.646;2023-07-09T14:11:55;32.8;43.5
78694;SHT31;68029;51.978;5.646;2023-07-09T14:14:27;32.6;44.5
78694;SHT31;68029;51.978;5.646;2023-07-09T14:16:56;32.5;44.7
78694;SHT31;68029;51.978;5.646;2023-07-09T14:19:26;32.3;47.5
78694;SHT31;68029;51.978;5.646;2023-07-09T14:21:55;32.3;45.9
78694;SHT31;68029;51.978;5.646;2023-07-09T14:24:26;32.2;46.1
78694;SHT31;68029;51.978;5.646;2023-07-09T14:26:57;32.1;44.2
78694;SHT31;68029;51.978;5.646;2023-07-09T14:29:26;32.0;44.4
78694;SHT31;68029;51.978;5.646;2023-07-09T14:31:54;31.9;43.5
78694;SHT31;68029;51.978;5.646;2023-07-09T14:34:24;31.8;45.0
78694;SHT31;68029;51.978;5.646;2023-07-09T14:36:55;31.8;44.6
78694;SHT31;68029;51.978;5.646;2023-07-09T14:39:26;31.7;45.1
78694;SHT31;68029;51.978;5.646;2023-07-09T14:41:55;31.6;45.6
78694;SHT31;68029;51.978;5.646;2023-07-09T14:44:28;31.4;46.0
78694;SHT31;68029;51.978;5.646;2023-07-09T14:46:59;31.2;46.4
78694;SHT31;68029;51.978;5.646;2023-07-09T14:49:28;30.9;47.9
78694;SHT31;68029;51.978;5.646;2023-07-09T14:51:58;30.2;49.7
78694;SHT31;68029;51.978;5.646;2023-07-09T14:54:29;29.5;52.5
78694;SHT31;68029;51.978;5.646;2023-07-09T14:56:58;29.0;55.2
78694;SHT31;68029;51.978;5.646;2023-07-09T14:59:27;28.4;57.0
78694;SHT31;68029;51.978;5.646;2023-07-09T15:01:56;28.0;58.0
78694;SHT31;68029;51.978;5.646;2023-07-09T15:04:30;27.6;58.6
78694;SHT31;68029;51.978;5.646;2023-07-09T15:07:00;27.3;60.4
78694;SHT31;68029;51.978;5.646;2023-07-09T15:09:29;27.1;62.4
78694;SHT31;68029;51.978;5.646;2023-07-09T15:11:59;26.9;64.3
78694;SHT31;68029;51.978;5.646;2023-07-09T15:14:27;26.8;64.8
78694;SHT31;68029;51.978;5.646;2023-07-09T15:16:56;26.8;66.0
78694;SHT31;68029;51.978;5.646;2023-07-09T15:19:25;26.8;65.1
78694;SHT31;68029;51.978;5.646;2023-07-09T15:21:55;26.9;64.6
78694;SHT31;68029;51.978;5.646;2023-07-09T15:24:28;26.9;66.9
78694;SHT31;68029;51.978;5.646;2023-07-09T15:26:58;26.9;66.8
78694;SHT31;68029;51.978;5.646;2023-07-09T15:29:28;27.0;65.3
78694;SHT31;68029;51.978;5.646;2023-07-09T15:31:58;27.1;64.9
78694;SHT31;68029;51.978;5.646;2023-07-09T15:34:26;27.1;66.0
78694;SHT31;68029;51.978;5.646;2023-07-09T15:36:57;27.1;65.8
78694;SHT31;68029;51.978;5.646;2023-07-09T15:39:25;27.2;66.0
78694;SHT31;68029;51.978;5.646;2023-07-09T15:41:54;27.3;63.6
78694;SHT31;68029;51.978;5.646;2023-07-09T15:44:23;27.3;63.0
78694;SHT31;68029;51.978;5.646;2023-07-09T15:46:55;27.4;65.6
78694;SHT31;68029;51.978;5.646;2023-07-09T15:49:27;27.4;64.6
78694;SHT31;68029;51.978;5.646;2023-07-09T15:51:55;27.4;65.1
78694;SHT31;68029;51.978;5.646;2023-07-09T15:54:24;27.5;64.3
78694;SHT31;68029;51.978;5.646;2023-07-09T15:56:53;27.5;63.3
78694;SHT31;68029;51.978;5.646;2023-07-09T15:59:28;27.5;62.3
78694;SHT31;68029;51.978;5.646;2023-07-09T16:01:58;27.6;63.0
78694;SHT31;68029;51.978;5.646;2023-07-09T16:04:27;27.6;64.9
78694;SHT31;68029;51.978;5.646;2023-07-09T16:06:55;27.6;63.4
78694;SHT31;68029;51.978;5.646;2023-07-09T16:09:24;27.6;61.5
78694;SHT31;68029;51.978;5.646;2023-07-09T16:11:55;27.7;61.1
78694;SHT31;68029;51.978;5.646;2023-07-09T16:14:27;27.6;63.4
78694;SHT31;68029;51.978;5.646;2023-07-09T16:16:59;27.6;62.4
78694;SHT31;68029;51.978;5.646;2023-07-09T16:19:30;27.7;63.5
78694;SHT31;68029;51.978;5.646;2023-07-09T16:22:02;27.7;63.5
78694;SHT31;68029;51.978;5.646;2023-07-09T16:24:33;27.7;63.2
78694;SHT31;68029;51.978;5.646;2023-07-09T16:27:05;27.7;62.6